CYYJ/YYJ METAR and TAF weather

Enter ICAO airport designator
Station Type Date Time Source
CYYJ METAR 2021/07/28 04:00 UTC NOAA

CYYJ 280400Z 00000KT 30SM FEW250 15/10 A3003 RMK CI1 CI TR SLP170


Station Type Date Time Source
CYYJ Decoded METAR 2021/07/28 04:00 UTC NOAA

Victoria Int. Airport, B. C., Canada (CYYJ) 48-39N 123-26W 19M
Jul 28, 2021 - 12:00 AM EDT / 2021.07.28 0400 UTC
Wind: Calm:0
Visibility: 30 mile(s):0
Sky conditions: mostly clear
Temperature: 59 F (15 C)
Dew Point: 50 F (10 C)
Relative Humidity: 72%
Pressure (altimeter): 30.03 in. Hg (1016 hPa)
ob: CYYJ 280400Z 00000KT 30SM FEW250 15/10 A3003 RMK CI1 CI TR SLP170
cycle: 4

Station Type Date Time Source
CYYJ TAF 2021/07/27 18:40 UTC NOAA

TAF CYYJ 271738Z 2718/2818 10005KT P6SM FEW040
BECMG 2720/2722 11009KT
BECMG 2802/2804 VRB03KT
FM281000 30006KT P6SM FEW012
RMK NXT FCST BY 280000Z

Example: see airport list